sensor_id;sensor_type;location;lat;lon;timestamp;temperature;humidity
32476;DHT22;18929;48.008;10.882;2024-03-02T00:01:34;9.10;99.90
32476;DHT22;18929;48.008;10.882;2024-03-02T00:04:02;9.10;99.90
32476;DHT22;18929;48.008;10.882;2024-03-02T00:06:30;9.10;99.90
32476;DHT22;18929;48.008;10.882;2024-03-02T00:08:59;9.20;99.90
32476;DHT22;18929;48.008;10.882;2024-03-02T00:11:26;9.00;99.90
32476;DHT22;18929;48.008;10.882;2024-03-02T00:13:53;9.10;99.90
32476;DHT22;18929;48.008;10.882;2024-03-02T00:16:20;9.10;99.90
32476;DHT22;18929;48.008;10.882;2024-03-02T00:18:47;9.20;99.90
32476;DHT22;18929;48.008;10.882;2024-03-02T00:21:14;9.00;99.90
32476;DHT22;18929;48.008;10.882;2024-03-02T00:23:43;9.30;99.90
32476;DHT22;18929;48.008;10.882;2024-03-02T00:28:40;9.00;99.90
32476;DHT22;18929;48.008;10.882;2024-03-02T00:31:10;9.10;99.90
32476;DHT22;18929;48.008;10.882;2024-03-02T00:33:39;9.30;99.90
32476;DHT22;18929;48.008;10.882;2024-03-02T00:36:07;9.30;99.90
32476;DHT22;18929;48.008;10.882;2024-03-02T00:38:35;9.40;99.90
32476;DHT22;18929;48.008;10.882;2024-03-02T00:43:43;9.20;99.90
32476;DHT22;18929;48.008;10.882;2024-03-02T00:46:15;9.40;99.90
32476;DHT22;18929;48.008;10.882;2024-03-02T00:48:45;9.30;99.90
32476;DHT22;18929;48.008;10.882;2024-03-02T00:51:14;9.40;99.90
32476;DHT22;18929;48.008;10.882;2024-03-02T00:53:41;9.50;99.90
32476;DHT22;18929;48.008;10.882;2024-03-02T00:56:08;9.30;99.90
32476;DHT22;18929;48.008;10.882;2024-03-02T00:58:36;9.10;99.90
32476;DHT22;18929;48.008;10.882;2024-03-02T01:01:04;9.00;99.90
32476;DHT22;18929;48.008;10.882;2024-03-02T01:03:32;8.80;99.90
32476;DHT22;18929;48.008;10.882;2024-03-02T01:05:59;8.70;99.90
32476;DHT22;18929;48.008;10.882;2024-03-02T01:08:26;8.80;99.90
32476;DHT22;18929;48.008;10.882;2024-03-02T01:10:53;9.00;99.90
32476;DHT22;18929;48.008;10.882;2024-03-02T01:13:21;8.80;99.90
32476;DHT22;18929;48.008;10.882;2024-03-02T01:15:48;8.90;99.90
32476;DHT22;18929;48.008;10.882;2024-03-02T01:18:17;8.90;99.90
32476;DHT22;18929;48.008;10.882;2024-03-02T01:20:44;9.20;99.90
32476;DHT22;18929;48.008;10.882;2024-03-02T01:23:11;9.20;99.90
32476;DHT22;18929;48.008;10.882;2024-03-02T01:25:37;9.20;99.90
32476;DHT22;18929;48.008;10.882;2024-03-02T01:28:05;9.30;99.90
32476;DHT22;18929;48.008;10.882;2024-03-02T01:30:32;9.10;99.90
32476;DHT22;18929;48.008;10.882;2024-03-02T01:32:58;9.00;99.90
32476;DHT22;18929;48.008;10.882;2024-03-02T01:35:27;9.10;99.90
32476;DHT22;18929;48.008;10.882;2024-03-02T01:37:54;9.30;99.90
32476;DHT22;18929;48.008;10.882;2024-03-02T01:40:20;9.20;99.90
32476;DHT22;18929;48.008;10.882;2024-03-02T01:42:49;9.10;99.90
32476;DHT22;18929;48.008;10.882;2024-03-02T01:45:16;9.00;99.90
32476;DHT22;18929;48.008;10.882;2024-03-02T01:47:43;8.90;99.90
32476;DHT22;18929;48.008;10.882;2024-03-02T01:50:10;8.80;99.90
32476;DHT22;18929;48.008;10.882;2024-03-02T01:52:40;8.40;99.90
32476;DHT22;18929;48.008;10.882;2024-03-02T01:55:07;7.50;99.90
32476;DHT22;18929;48.008;10.882;2024-03-02T01:57:34;6.90;99.90
32476;DHT22;18929;48.008;10.882;2024-03-02T02:00:01;6.90;99.90
32476;DHT22;18929;48.008;10.882;2024-03-02T02:02:28;7.10;99.90
32476;DHT22;18929;48.008;10.882;2024-03-02T02:04:55;7.50;99.90
32476;DHT22;18929;48.008;10.882;2024-03-02T02:07:22;8.00;99.90
32476;DHT22;18929;48.008;10.882;2024-03-02T02:09:51;8.20;99.90
32476;DHT22;18929;48.008;10.882;2024-03-02T02:12:17;8.20;99.90
32476;DHT22;18929;48.008;10.882;2024-03-02T02:14:47;8.30;99.90
32476;DHT22;18929;48.008;10.882;2024-03-02T02:17:14;8.40;99.90
32476;DHT22;18929;48.008;10.882;2024-03-02T02:19:40;8.60;99.90
32476;DHT22;18929;48.008;10.882;2024-03-02T02:22:09;8.20;99.90
32476;DHT22;18929;48.008;10.882;2024-03-02T02:24:36;8.60;99.90
32476;DHT22;18929;48.008;10.882;2024-03-02T02:27:06;8.60;99.90
32476;DHT22;18929;48.008;10.882;2024-03-02T02:29:32;8.10;99.90
32476;DHT22;18929;48.008;10.882;2024-03-02T02:31:59;7.90;99.90
32476;DHT22;18929;48.008;10.882;2024-03-02T02:34:26;8.40;99.90
32476;DHT22;18929;48.008;10.882;2024-03-02T02:36:53;8.80;99.90
32476;DHT22;18929;48.008;10.882;2024-03-02T02:41:52;8.80;99.90
32476;DHT22;18929;48.008;10.882;2024-03-02T02:44:19;8.70;99.90
32476;DHT22;18929;48.008;10.882;2024-03-02T02:46:46;8.70;99.90
32476;DHT22;18929;48.008;10.882;2024-03-02T02:49:13;8.80;99.90
32476;DHT22;18929;48.008;10.882;2024-03-02T02:51:40;8.80;99.90
32476;DHT22;18929;48.008;10.882;2024-03-02T02:54:07;8.60;99.90
32476;DHT22;18929;48.008;10.882;2024-03-02T02:56:34;8.60;99.90
32476;DHT22;18929;48.008;10.882;2024-03-02T02:59:02;8.60;99.90
32476;DHT22;18929;48.008;10.882;2024-03-02T03:01:29;8.70;99.90
32476;DHT22;18929;48.008;10.882;2024-03-02T03:03:56;9.00;99.90
32476;DHT22;18929;48.008;10.882;2024-03-02T03:06:22;8.90;99.90
32476;DHT22;18929;48.008;10.882;2024-03-02T03:08:50;8.80;99.90
32476;DHT22;18929;48.008;10.882;2024-03-02T03:11:17;8.70;99.90
32476;DHT22;18929;48.008;10.882;2024-03-02T03:13:44;8.80;99.90
32476;DHT22;18929;48.008;10.882;2024-03-02T03:16:12;8.90;99.90
32476;DHT22;18929;48.008;10.882;2024-03-02T03:18:39;8.90;99.90
32476;DHT22;18929;48.008;10.882;2024-03-02T03:21:06;8.90;99.90
32476;DHT22;18929;48.008;10.882;2024-03-02T03:23:33;9.00;99.90
32476;DHT22;18929;48.008;10.882;2024-03-02T03:26:00;8.90;99.90
32476;DHT22;18929;48.008;10.882;2024-03-02T03:28:27;9.00;99.90
32476;DHT22;18929;48.008;10.882;2024-03-02T03:30:54;8.80;99.90
32476;DHT22;18929;48.008;10.882;2024-03-02T03:33:22;9.00;99.90
32476;DHT22;18929;48.008;10.882;2024-03-02T03:35:49;8.90;99.90
32476;DHT22;18929;48.008;10.882;2024-03-02T03:38:16;8.80;99.90
32476;DHT22;18929;48.008;10.882;2024-03-02T03:40:43;8.60;99.90
32476;DHT22;18929;48.008;10.882;2024-03-02T03:43:10;8.40;99.90
32476;DHT22;18929;48.008;10.882;2024-03-02T03:45:37;8.30;99.90
32476;DHT22;18929;48.008;10.882;2024-03-02T03:48:04;8.30;99.90
32476;DHT22;18929;48.008;10.882;2024-03-02T03:50:31;8.40;99.90
32476;DHT22;18929;48.008;10.882;2024-03-02T03:52:58;8.50;99.90
32476;DHT22;18929;48.008;10.882;2024-03-02T03:55:25;8.40;99.90
32476;DHT22;18929;48.008;10.882;2024-03-02T03:57:52;8.40;99.90
32476;DHT22;18929;48.008;10.882;2024-03-02T04:00:18;8.40;99.90
32476;DHT22;18929;48.008;10.882;2024-03-02T04:02:45;8.50;99.90
32476;DHT22;18929;48.008;10.882;2024-03-02T04:05:12;8.60;99.90
32476;DHT22;18929;48.008;10.882;2024-03-02T04:07:40;8.90;99.90
32476;DHT22;18929;48.008;10.882;2024-03-02T04:10:08;8.90;99.90
32476;DHT22;18929;48.008;10.882;2024-03-02T04:12:35;8.90;99.90
32476;DHT22;18929;48.008;10.882;2024-03-02T04:15:03;8.80;99.90
32476;DHT22;18929;48.008;10.882;2024-03-02T04:17:32;8.80;99.90
32476;DHT22;18929;48.008;10.882;2024-03-02T04:19:59;8.60;99.90
32476;DHT22;18929;48.008;10.882;2024-03-02T04:22:26;8.80;99.90
32476;DHT22;18929;48.008;10.882;2024-03-02T04:24:54;8.90;99.90
32476;DHT22;18929;48.008;10.882;2024-03-02T04:27:21;8.80;99.90
32476;DHT22;18929;48.008;10.882;2024-03-02T04:29:54;8.70;99.90
32476;DHT22;18929;48.008;10.882;2024-03-02T04:32:21;8.50;99.90
32476;DHT22;18929;48.008;10.882;2024-03-02T04:34:48;8.00;99.90
32476;DHT22;18929;48.008;10.882;2024-03-02T04:37:15;8.40;99.90
32476;DHT22;18929;48.008;10.882;2024-03-02T04:39:42;8.40;99.90
32476;DHT22;18929;48.008;10.882;2024-03-02T04:42:10;8.50;99.90
32476;DHT22;18929;48.008;10.882;2024-03-02T04:44:37;8.40;99.90
32476;DHT22;18929;48.008;10.882;2024-03-02T04:47:04;8.30;99.90
32476;DHT22;18929;48.008;10.882;2024-03-02T04:49:31;8.10;99.90
32476;DHT22;18929;48.008;10.882;2024-03-02T04:51:58;8.10;99.90
32476;DHT22;18929;48.008;10.882;2024-03-02T04:54:25;8.10;99.90
32476;DHT22;18929;48.008;10.882;2024-03-02T04:59:57;8.00;99.90
32476;DHT22;18929;48.008;10.882;2024-03-02T05:02:24;8.10;99.90
32476;DHT22;18929;48.008;10.882;2024-03-02T05:04:51;8.30;99.90
32476;DHT22;18929;48.008;10.882;2024-03-02T05:07:18;8.40;99.90
32476;DHT22;18929;48.008;10.882;2024-03-02T05:09:44;8.30;99.90
32476;DHT22;18929;48.008;10.882;2024-03-02T05:12:13;8.40;99.90
32476;DHT22;18929;48.008;10.882;2024-03-02T05:14:54;8.40;99.90
32476;DHT22;18929;48.008;10.882;2024-03-02T05:17:23;8.60;99.90
32476;DHT22;18929;48.008;10.882;2024-03-02T05:19:49;8.60;99.90
32476;DHT22;18929;48.008;10.882;2024-03-02T05:22:16;8.70;99.90
32476;DHT22;18929;48.008;10.882;2024-03-02T05:24:43;8.60;99.90
32476;DHT22;18929;48.008;10.882;2024-03-02T05:27:10;8.60;99.90
32476;DHT22;18929;48.008;10.882;2024-03-02T05:29:37;8.70;99.90
32476;DHT22;18929;48.008;10.882;2024-03-02T05:32:04;8.60;99.90
32476;DHT22;18929;48.008;10.882;2024-03-02T05:34:32;8.70;99.90
32476;DHT22;18929;48.008;10.882;2024-03-02T05:37:00;8.00;99.90
32476;DHT22;18929;48.008;10.882;2024-03-02T05:39:27;8.20;99.90
32476;DHT22;18929;48.008;10.882;2024-03-02T05:41:54;8.20;99.90
32476;DHT22;18929;48.008;10.882;2024-03-02T05:44:21;8.20;99.90
32476;DHT22;18929;48.008;10.882;2024-03-02T05:46:48;8.20;99.90
32476;DHT22;18929;48.008;10.882;2024-03-02T05:49:15;8.10;99.90
32476;DHT22;18929;48.008;10.882;2024-03-02T05:51:43;8.30;99.90
32476;DHT22;18929;48.008;10.882;2024-03-02T05:54:10;8.20;99.90
32476;DHT22;18929;48.008;10.882;2024-03-02T05:56:37;8.40;99.90
32476;DHT22;18929;48.008;10.882;2024-03-02T05:59:03;8.40;99.90
32476;DHT22;18929;48.008;10.882;2024-03-02T06:01:38;8.50;99.90
32476;DHT22;18929;48.008;10.882;2024-03-02T06:04:05;8.60;99.90
32476;DHT22;18929;48.008;10.882;2024-03-02T06:06:32;8.50;99.90
32476;DHT22;18929;48.008;10.882;2024-03-02T06:09:00;8.50;99.90
32476;DHT22;18929;48.008;10.882;2024-03-02T06:11:28;8.50;99.90
32476;DHT22;18929;48.008;10.882;2024-03-02T06:13:54;8.70;99.90
32476;DHT22;18929;48.008;10.882;2024-03-02T06:16:21;8.70;99.90
32476;DHT22;18929;48.008;10.882;2024-03-02T06:18:48;8.60;99.90
32476;DHT22;18929;48.008;10.882;2024-03-02T06:21:15;8.50;99.90
32476;DHT22;18929;48.008;10.882;2024-03-02T06:23:43;8.50;99.90
32476;DHT22;18929;48.008;10.882;2024-03-02T06:26:12;8.50;99.90
32476;DHT22;18929;48.008;10.882;2024-03-02T06:28:39;8.50;99.90
32476;DHT22;18929;48.008;10.882;2024-03-02T06:31:06;8.40;99.90
32476;DHT22;18929;48.008;10.882;2024-03-02T06:33:32;8.40;99.90
32476;DHT22;18929;48.008;10.882;2024-03-02T06:35:59;8.30;99.90
32476;DHT22;18929;48.008;10.882;2024-03-02T06:40:58;8.10;99.90
32476;DHT22;18929;48.008;10.882;2024-03-02T06:43:26;8.10;99.90
32476;DHT22;18929;48.008;10.882;2024-03-02T06:48:30;8.20;99.90
32476;DHT22;18929;48.008;10.882;2024-03-02T06:50:57;8.00;99.90
32476;DHT22;18929;48.008;10.882;2024-03-02T06:53:24;8.30;99.90
32476;DHT22;18929;48.008;10.882;2024-03-02T06:55:51;8.30;99.90
32476;DHT22;18929;48.008;10.882;2024-03-02T06:58:18;8.30;99.90
32476;DHT22;18929;48.008;10.882;2024-03-02T07:00:47;8.30;99.90
32476;DHT22;18929;48.008;10.882;2024-03-02T07:03:14;8.30;99.90
32476;DHT22;18929;48.008;10.882;2024-03-02T07:05:41;8.40;99.90
32476;DHT22;18929;48.008;10.882;2024-03-02T07:08:07;8.50;99.90
32476;DHT22;18929;48.008;10.882;2024-03-02T07:10:34;8.70;99.90
32476;DHT22;18929;48.008;10.882;2024-03-02T07:13:01;8.70;99.90
32476;DHT22;18929;48.008;10.882;2024-03-02T07:15:28;8.60;99.90
32476;DHT22;18929;48.008;10.882;2024-03-02T07:18:21;8.30;99.90
32476;DHT22;18929;48.008;10.882;2024-03-02T07:20:57;8.50;99.90
32476;DHT22;18929;48.008;10.882;2024-03-02T07:23:26;8.10;99.90
32476;DHT22;18929;48.008;10.882;2024-03-02T07:25:53;7.40;99.90
32476;DHT22;18929;48.008;10.882;2024-03-02T07:28:21;7.20;99.90
32476;DHT22;18929;48.008;10.882;2024-03-02T07:30:57;7.20;99.90
32476;DHT22;18929;48.008;10.882;2024-03-02T07:33:25;7.70;99.90
32476;DHT22;18929;48.008;10.882;2024-03-02T07:35:53;8.20;99.90
32476;DHT22;18929;48.008;10.882;2024-03-02T07:38:20;8.30;99.90
32476;DHT22;18929;48.008;10.882;2024-03-02T07:40:47;8.60;99.90
32476;DHT22;18929;48.008;10.882;2024-03-02T07:43:16;8.80;99.90
32476;DHT22;18929;48.008;10.882;2024-03-02T07:45:43;8.80;99.90
32476;DHT22;18929;48.008;10.882;2024-03-02T07:48:10;8.90;99.90
32476;DHT22;18929;48.008;10.882;2024-03-02T07:50:38;8.60;99.90
32476;DHT22;18929;48.008;10.882;2024-03-02T07:53:05;8.80;99.90
32476;DHT22;18929;48.008;10.882;2024-03-02T07:55:33;8.70;99.90
32476;DHT22;18929;48.008;10.882;2024-03-02T07:58:00;8.30;99.90
32476;DHT22;18929;48.008;10.882;2024-03-02T08:00:27;8.00;99.90
32476;DHT22;18929;48.008;10.882;2024-03-02T08:02:54;8.10;99.90
32476;DHT22;18929;48.008;10.882;2024-03-02T08:05:21;8.00;99.90
32476;DHT22;18929;48.008;10.882;2024-03-02T08:07:49;7.90;99.90
32476;DHT22;18929;48.008;10.882;2024-03-02T08:10:18;7.90;99.90
32476;DHT22;18929;48.008;10.882;2024-03-02T08:12:45;8.00;99.90
32476;DHT22;18929;48.008;10.882;2024-03-02T08:15:12;8.20;99.90
32476;DHT22;18929;48.008;10.882;2024-03-02T08:17:39;8.00;99.90
32476;DHT22;18929;48.008;10.882;2024-03-02T08:20:10;8.00;99.90
32476;DHT22;18929;48.008;10.882;2024-03-02T08:22:37;8.30;99.90
32476;DHT22;18929;48.008;10.882;2024-03-02T08:25:06;8.50;99.90
32476;DHT22;18929;48.008;10.882;2024-03-02T08:27:33;8.70;99.90
32476;DHT22;18929;48.008;10.882;2024-03-02T08:30:00;8.90;99.90
32476;DHT22;18929;48.008;10.882;2024-03-02T08:32:29;8.60;99.90
32476;DHT22;18929;48.008;10.882;2024-03-02T08:34:56;8.80;99.90
32476;DHT22;18929;48.008;10.882;2024-03-02T08:37:23;8.70;99.90
32476;DHT22;18929;48.008;10.882;2024-03-02T08:39:50;8.80;99.90
32476;DHT22;18929;48.008;10.882;2024-03-02T08:42:18;8.90;99.90
32476;DHT22;18929;48.008;10.882;2024-03-02T08:47:16;9.00;99.90
32476;DHT22;18929;48.008;10.882;2024-03-02T08:49:43;8.80;99.90
32476;DHT22;18929;48.008;10.882;2024-03-02T08:52:10;8.70;99.90
32476;DHT22;18929;48.008;10.882;2024-03-02T08:54:38;8.80;99.90
32476;DHT22;18929;48.008;10.882;2024-03-02T08:57:05;9.00;99.90
32476;DHT22;18929;48.008;10.882;2024-03-02T08:59:37;9.30;99.90
32476;DHT22;18929;48.008;10.882;2024-03-02T09:02:04;9.30;99.90
32476;DHT22;18929;48.008;10.882;2024-03-02T09:04:31;9.30;99.90
32476;DHT22;18929;48.008;10.882;2024-03-02T09:06:58;9.50;99.90
32476;DHT22;18929;48.008;10.882;2024-03-02T09:09:25;9.60;99.90
32476;DHT22;18929;48.008;10.882;2024-03-02T09:11:54;9.70;99.90
32476;DHT22;18929;48.008;10.882;2024-03-02T09:14:23;9.70;99.90
32476;DHT22;18929;48.008;10.882;2024-03-02T09:16:51;9.60;99.90
32476;DHT22;18929;48.008;10.882;2024-03-02T09:19:18;9.40;99.90
32476;DHT22;18929;48.008;10.882;2024-03-02T09:21:45;9.20;99.90
32476;DHT22;18929;48.008;10.882;2024-03-02T09:24:14;9.60;99.90
32476;DHT22;18929;48.008;10.882;2024-03-02T09:26:41;9.30;99.90
32476;DHT22;18929;48.008;10.882;2024-03-02T09:29:08;9.40;99.90
32476;DHT22;18929;48.008;10.882;2024-03-02T09:31:38;9.30;99.90
32476;DHT22;18929;48.008;10.882;2024-03-02T09:34:07;9.60;99.90
32476;DHT22;18929;48.008;10.882;2024-03-02T09:36:50;9.40;99.90
32476;DHT22;18929;48.008;10.882;2024-03-02T09:39:17;8.80;99.90
32476;DHT22;18929;48.008;10.882;2024-03-02T09:41:44;8.40;99.90
32476;DHT22;18929;48.008;10.882;2024-03-02T09:44:11;8.70;99.90
32476;DHT22;18929;48.008;10.882;2024-03-02T09:46:38;9.00;99.90
32476;DHT22;18929;48.008;10.882;2024-03-02T09:49:07;9.60;99.90
32476;DHT22;18929;48.008;10.882;2024-03-02T09:51:34;9.80;99.90
32476;DHT22;18929;48.008;10.882;2024-03-02T09:54:02;10.10;99.90
32476;DHT22;18929;48.008;10.882;2024-03-02T09:56:30;9.90;99.90
32476;DHT22;18929;48.008;10.882;2024-03-02T09:58:56;10.20;99.90
32476;DHT22;18929;48.008;10.882;2024-03-02T10:01:23;10.30;99.90
32476;DHT22;18929;48.008;10.882;2024-03-02T10:03:50;10.10;99.90
32476;DHT22;18929;48.008;10.882;2024-03-02T10:06:23;10.20;99.90
32476;DHT22;18929;48.008;10.882;2024-03-02T10:08:50;10.40;99.90
32476;DHT22;18929;48.008;10.882;2024-03-02T10:11:26;10.50;99.90
32476;DHT22;18929;48.008;10.882;2024-03-02T10:16:40;10.30;99.90
32476;DHT22;18929;48.008;10.882;2024-03-02T10:19:16;10.50;99.90
32476;DHT22;18929;48.008;10.882;2024-03-02T10:21:45;10.30;99.90
32476;DHT22;18929;48.008;10.882;2024-03-02T10:24:13;10.60;99.90
32476;DHT22;18929;48.008;10.882;2024-03-02T10:26:41;10.70;99.90
32476;DHT22;18929;48.008;10.882;2024-03-02T10:29:08;10.80;99.90
32476;DHT22;18929;48.008;10.882;2024-03-02T10:31:36;10.70;99.90
32476;DHT22;18929;48.008;10.882;2024-03-02T10:34:04;10.50;99.90
32476;DHT22;18929;48.008;10.882;2024-03-02T10:36:31;10.50;99.90
32476;DHT22;18929;48.008;10.882;2024-03-02T10:39:00;10.50;99.90
32476;DHT22;18929;48.008;10.882;2024-03-02T10:41:29;10.20;99.90
32476;DHT22;18929;48.008;10.882;2024-03-02T10:43:59;10.60;99.90
32476;DHT22;18929;48.008;10.882;2024-03-02T10:46:26;10.60;99.90
32476;DHT22;18929;48.008;10.882;2024-03-02T10:48:54;10.40;99.90
32476;DHT22;18929;48.008;10.882;2024-03-02T10:51:21;10.50;99.90
32476;DHT22;18929;48.008;10.882;2024-03-02T10:53:48;10.10;99.90
32476;DHT22;18929;48.008;10.882;2024-03-02T10:56:19;10.20;99.90
32476;DHT22;18929;48.008;10.882;2024-03-02T10:58:50;10.30;99.90
32476;DHT22;18929;48.008;10.882;2024-03-02T11:01:17;10.40;99.90
32476;DHT22;18929;48.008;10.882;2024-03-02T11:03:45;10.60;99.90
32476;DHT22;18929;48.008;10.882;2024-03-02T11:06:12;10.60;99.90
32476;DHT22;18929;48.008;10.882;2024-03-02T11:08:40;10.50;99.90
32476;DHT22;18929;48.008;10.882;2024-03-02T11:11:07;10.40;99.90
32476;DHT22;18929;48.008;10.882;2024-03-02T11:13:39;10.60;99.90
32476;DHT22;18929;48.008;10.882;2024-03-02T11:16:12;10.60;99.90
32476;DHT22;18929;48.008;10.882;2024-03-02T11:21:18;10.60;99.90
32476;DHT22;18929;48.008;10.882;2024-03-02T11:23:45;10.60;99.90
32476;DHT22;18929;48.008;10.882;2024-03-02T11:26:18;11.00;99.90
32476;DHT22;18929;48.008;10.882;2024-03-02T11:28:46;10.60;99.90
32476;DHT22;18929;48.008;10.882;2024-03-02T11:31:14;10.50;99.90
32476;DHT22;18929;48.008;10.882;2024-03-02T11:33:41;10.30;99.90
32476;DHT22;18929;48.008;10.882;2024-03-02T11:38:39;10.60;99.90
32476;DHT22;18929;48.008;10.882;2024-03-02T11:41:09;10.90;99.90
32476;DHT22;18929;48.008;10.882;2024-03-02T11:43:37;10.70;99.90
32476;DHT22;18929;48.008;10.882;2024-03-02T11:46:06;10.70;99.90
32476;DHT22;18929;48.008;10.882;2024-03-02T11:48:34;10.80;99.90
32476;DHT22;18929;48.008;10.882;2024-03-02T11:51:01;10.90;99.90
32476;DHT22;18929;48.008;10.882;2024-03-02T11:53:28;10.80;99.90
32476;DHT22;18929;48.008;10.882;2024-03-02T11:55:57;10.80;99.90
32476;DHT22;18929;48.008;10.882;2024-03-02T11:58:25;10.80;99.90
32476;DHT22;18929;48.008;10.882;2024-03-02T12:00:56;10.50;99.90
32476;DHT22;18929;48.008;10.882;2024-03-02T12:03:25;10.60;99.90
32476;DHT22;18929;48.008;10.882;2024-03-02T12:05:53;10.60;99.90
32476;DHT22;18929;48.008;10.882;2024-03-02T12:08:20;10.80;99.90
32476;DHT22;18929;48.008;10.882;2024-03-02T12:10:55;10.60;99.90
32476;DHT22;18929;48.008;10.882;2024-03-02T12:13:22;10.70;99.90
32476;DHT22;18929;48.008;10.882;2024-03-02T12:15:52;10.90;99.90
32476;DHT22;18929;48.008;10.882;2024-03-02T12:18:19;10.80;99.90
32476;DHT22;18929;48.008;10.882;2024-03-02T12:20:48;10.80;99.90
32476;DHT22;18929;48.008;10.882;2024-03-02T12:23:15;11.10;99.90
32476;DHT22;18929;48.008;10.882;2024-03-02T12:25:42;11.00;99.90
32476;DHT22;18929;48.008;10.882;2024-03-02T12:28:10;10.80;99.90
32476;DHT22;18929;48.008;10.882;2024-03-02T12:30:37;10.80;99.90
32476;DHT22;18929;48.008;10.882;2024-03-02T12:33:04;11.50;99.90
32476;DHT22;18929;48.008;10.882;2024-03-02T12:35:31;11.30;99.90
32476;DHT22;18929;48.008;10.882;2024-03-02T12:37:59;10.90;99.90
32476;DHT22;18929;48.008;10.882;2024-03-02T12:40:27;10.90;99.90
32476;DHT22;18929;48.008;10.882;2024-03-02T12:42:54;11.20;99.90
32476;DHT22;18929;48.008;10.882;2024-03-02T12:45:21;11.80;99.90
32476;DHT22;18929;48.008;10.882;2024-03-02T12:47:51;11.50;99.90
32476;DHT22;18929;48.008;10.882;2024-03-02T12:50:19;11.00;99.90
32476;DHT22;18929;48.008;10.882;2024-03-02T12:52:50;11.40;99.90
32476;DHT22;18929;48.008;10.882;2024-03-02T12:55:19;11.40;99.90
32476;DHT22;18929;48.008;10.882;2024-03-02T12:57:46;11.70;99.90
32476;DHT22;18929;48.008;10.882;2024-03-02T13:00:13;11.70;99.90
32476;DHT22;18929;48.008;10.882;2024-03-02T13:02:40;11.60;99.90
32476;DHT22;18929;48.008;10.882;2024-03-02T13:05:08;11.50;99.90
32476;DHT22;18929;48.008;10.882;2024-03-02T13:07:36;11.80;99.90
32476;DHT22;18929;48.008;10.882;2024-03-02T13:10:03;11.80;99.90
32476;DHT22;18929;48.008;10.882;2024-03-02T13:12:32;11.80;99.90
32476;DHT22;18929;48.008;10.882;2024-03-02T13:14:59;11.90;99.90
32476;DHT22;18929;48.008;10.882;2024-03-02T13:17:27;11.90;99.90
32476;DHT22;18929;48.008;10.882;2024-03-02T13:19:55;12.10;99.90
32476;DHT22;18929;48.008;10.882;2024-03-02T13:22:22;12.10;99.90
32476;DHT22;18929;48.008;10.882;2024-03-02T13:24:49;11.90;99.90
32476;DHT22;18929;48.008;10.882;2024-03-02T13:27:16;11.90;99.90
32476;DHT22;18929;48.008;10.882;2024-03-02T13:29:46;12.50;99.90
32476;DHT22;18929;48.008;10.882;2024-03-02T13:32:14;12.40;99.90
32476;DHT22;18929;48.008;10.882;2024-03-02T13:34:49;12.40;99.90
32476;DHT22;18929;48.008;10.882;2024-03-02T13:37:16;12.30;99.90
32476;DHT22;18929;48.008;10.882;2024-03-02T13:39:43;12.10;99.90
32476;DHT22;18929;48.008;10.882;2024-03-02T13:42:10;11.80;99.90
32476;DHT22;18929;48.008;10.882;2024-03-02T13:44:39;12.20;99.90
32476;DHT22;18929;48.008;10.882;2024-03-02T13:47:07;12.60;99.90
32476;DHT22;18929;48.008;10.882;2024-03-02T13:49:34;12.50;99.90
32476;DHT22;18929;48.008;10.882;2024-03-02T13:52:01;12.50;99.90
32476;DHT22;18929;48.008;10.882;2024-03-02T13:54:39;12.40;99.90
32476;DHT22;18929;48.008;10.882;2024-03-02T13:57:14;12.40;99.90
32476;DHT22;18929;48.008;10.882;2024-03-02T13:59:42;13.00;99.90
32476;DHT22;18929;48.008;10.882;2024-03-02T14:02:11;12.70;99.90
32476;DHT22;18929;48.008;10.882;2024-03-02T14:04:38;12.50;99.90
32476;DHT22;18929;48.008;10.882;2024-03-02T14:07:05;12.40;99.90
32476;DHT22;18929;48.008;10.882;2024-03-02T14:09:33;12.50;99.90
32476;DHT22;18929;48.008;10.882;2024-03-02T14:12:00;12.80;99.90
32476;DHT22;18929;48.008;10.882;2024-03-02T14:14:27;12.60;99.90
32476;DHT22;18929;48.008;10.882;2024-03-02T14:16:54;12.70;99.90
32476;DHT22;18929;48.008;10.882;2024-03-02T14:19:23;13.00;99.90
32476;DHT22;18929;48.008;10.882;2024-03-02T14:21:49;13.10;99.90
32476;DHT22;18929;48.008;10.882;2024-03-02T14:24:16;12.80;99.90
32476;DHT22;18929;48.008;10.882;2024-03-02T14:26:43;13.00;99.90
32476;DHT22;18929;48.008;10.882;2024-03-02T14:29:11;13.00;99.90
32476;DHT22;18929;48.008;10.882;2024-03-02T14:31:38;13.10;99.90
32476;DHT22;18929;48.008;10.882;2024-03-02T14:36:38;13.20;99.90
32476;DHT22;18929;48.008;10.882;2024-03-02T14:39:05;13.40;99.90
32476;DHT22;18929;48.008;10.882;2024-03-02T14:41:35;13.40;99.90
32476;DHT22;18929;48.008;10.882;2024-03-02T14:44:02;13.00;99.90
32476;DHT22;18929;48.008;10.882;2024-03-02T14:46:29;13.50;99.90
32476;DHT22;18929;48.008;10.882;2024-03-02T14:48:56;13.10;99.90
32476;DHT22;18929;48.008;10.882;2024-03-02T14:51:23;13.30;99.90
32476;DHT22;18929;48.008;10.882;2024-03-02T14:53:52;13.60;99.90
32476;DHT22;18929;48.008;10.882;2024-03-02T14:56:18;14.00;99.90
32476;DHT22;18929;48.008;10.882;2024-03-02T14:58:45;13.70;99.90
32476;DHT22;18929;48.008;10.882;2024-03-02T15:01:12;13.70;99.90
32476;DHT22;18929;48.008;10.882;2024-03-02T15:03:39;13.60;99.90
32476;DHT22;18929;48.008;10.882;2024-03-02T15:06:08;13.60;99.90
32476;DHT22;18929;48.008;10.882;2024-03-02T15:08:37;13.60;99.90
32476;DHT22;18929;48.008;10.882;2024-03-02T15:11:10;13.60;99.90
32476;DHT22;18929;48.008;10.882;2024-03-02T15:13:40;13.60;99.90
32476;DHT22;18929;48.008;10.882;2024-03-02T15:16:20;13.60;99.90
32476;DHT22;18929;48.008;10.882;2024-03-02T15:18:58;13.70;99.90
32476;DHT22;18929;48.008;10.882;2024-03-02T15:21:25;13.30;99.90
32476;DHT22;18929;48.008;10.882;2024-03-02T15:23:52;13.70;99.90
32476;DHT22;18929;48.008;10.882;2024-03-02T15:26:21;13.60;99.90
32476;DHT22;18929;48.008;10.882;2024-03-02T15:28:47;13.40;99.90
32476;DHT22;18929;48.008;10.882;2024-03-02T15:31:14;13.40;99.90
32476;DHT22;18929;48.008;10.882;2024-03-02T15:33:42;13.30;99.90
32476;DHT22;18929;48.008;10.882;2024-03-02T15:38:46;13.50;99.90
32476;DHT22;18929;48.008;10.882;2024-03-02T15:41:13;13.20;99.90
32476;DHT22;18929;48.008;10.882;2024-03-02T15:43:48;13.40;99.90
32476;DHT22;18929;48.008;10.882;2024-03-02T15:46:15;13.50;99.90
32476;DHT22;18929;48.008;10.882;2024-03-02T15:48:42;13.60;99.90
32476;DHT22;18929;48.008;10.882;2024-03-02T15:51:28;13.50;99.90
32476;DHT22;18929;48.008;10.882;2024-03-02T15:53:56;13.10;99.90
32476;DHT22;18929;48.008;10.882;2024-03-02T15:56:23;13.10;99.90
32476;DHT22;18929;48.008;10.882;2024-03-02T15:58:52;13.10;99.90
32476;DHT22;18929;48.008;10.882;2024-03-02T16:01:19;13.20;99.90